createdAt,value
2018-01-30T00:00:44.281Z,0.90
2018-01-30T00:03:11.754Z,0.90
2018-01-30T00:05:39.010Z,1.33
2018-01-30T00:08:06.603Z,0.80
2018-01-30T00:10:34.164Z,0.77
2018-01-30T00:13:01.722Z,0.77
2018-01-30T00:15:29.189Z,0.60
2018-01-30T00:17:56.669Z,0.70
2018-01-30T00:20:24.490Z,0.70
2018-01-30T00:22:51.963Z,0.80
2018-01-30T00:25:19.524Z,0.70
2018-01-30T00:27:47.013Z,0.70
2018-01-30T00:30:14.480Z,0.90
2018-01-30T00:32:43.741Z,0.70
2018-01-30T00:35:11.218Z,0.60
2018-01-30T00:37:38.685Z,0.80
2018-01-30T00:40:06.159Z,0.80
2018-01-30T00:42:33.641Z,0.70
2018-01-30T00:45:01.113Z,0.60
2018-01-30T00:47:29.300Z,0.60
2018-01-30T00:49:56.886Z,0.70
2018-01-30T00:52:24.421Z,0.60
2018-01-30T00:54:51.909Z,0.60
2018-01-30T00:57:19.400Z,0.60
2018-01-30T00:59:46.869Z,0.60
2018-01-30T01:02:14.383Z,0.60
2018-01-30T01:04:41.874Z,0.57
2018-01-30T01:07:09.371Z,0.70
2018-01-30T01:09:37.570Z,0.60
2018-01-30T01:12:05.040Z,0.50
2018-01-30T01:14:32.301Z,0.60
2018-01-30T01:16:59.773Z,0.50
2018-01-30T01:19:28.013Z,0.60
2018-01-30T01:21:55.481Z,0.50
2018-01-30T01:24:22.957Z,0.60
2018-01-30T01:26:50.429Z,0.60
2018-01-30T01:29:17.892Z,0.50
2018-01-30T01:31:45.401Z,0.40
2018-01-30T01:34:13.140Z,0.50
2018-01-30T01:36:40.696Z,0.60
2018-01-30T01:39:08.243Z,0.50
2018-01-30T01:41:35.828Z,0.50
2018-01-30T01:44:03.329Z,0.50
2018-01-30T01:46:30.797Z,0.60
2018-01-30T01:48:58.265Z,0.50
2018-01-30T01:51:25.745Z,0.50
2018-01-30T01:53:53.305Z,0.50
2018-01-30T01:56:20.865Z,0.50
2018-01-30T01:58:48.370Z,0.40
2018-01-30T02:01:15.858Z,0.50
2018-01-30T02:03:43.326Z,0.50
2018-01-30T02:06:10.826Z,0.50
2018-01-30T02:08:38.458Z,0.40
2018-01-30T02:11:05.969Z,0.40
2018-01-30T02:13:35.317Z,0.40
2018-01-30T02:16:02.816Z,0.50
2018-01-30T02:18:30.286Z,0.40
2018-01-30T02:20:57.795Z,0.50
2018-01-30T02:23:25.269Z,0.60
2018-01-30T02:25:52.758Z,0.40
2018-01-30T02:28:20.249Z,0.50
2018-01-30T02:30:47.747Z,0.70
2018-01-30T02:33:15.227Z,0.50
2018-01-30T02:35:42.716Z,0.45
2018-01-30T02:38:10.181Z,0.65
2018-01-30T02:40:38.828Z,0.50
2018-01-30T02:43:06.548Z,0.50
2018-01-30T02:45:34.119Z,0.50
2018-01-30T02:48:02.405Z,0.60
2018-01-30T02:50:30.145Z,0.88
2018-01-30T02:52:57.908Z,0.50
2018-01-30T02:55:26.278Z,0.55
2018-01-30T02:57:53.764Z,0.47
2018-01-30T03:00:21.435Z,0.50
2018-01-30T03:02:49.181Z,0.60
2018-01-30T03:05:16.743Z,0.50
2018-01-30T03:07:44.326Z,0.60
2018-01-30T03:10:12.055Z,0.60
2018-01-30T03:12:39.818Z,0.50
2018-01-30T03:15:07.583Z,0.55
2018-01-30T03:17:35.347Z,0.50
2018-01-30T03:20:03.011Z,0.50
2018-01-30T03:22:30.774Z,0.60
2018-01-30T03:24:58.369Z,0.60
2018-01-30T03:27:25.935Z,0.45
2018-01-30T03:29:53.494Z,0.60
2018-01-30T03:32:21.046Z,0.60
2018-01-30T03:34:48.601Z,0.50
2018-01-30T03:37:16.343Z,0.50
2018-01-30T03:39:43.999Z,0.40
2018-01-30T03:42:11.769Z,0.60
2018-01-30T03:44:39.467Z,0.60
2018-01-30T03:47:08.929Z,0.80
2018-01-30T03:49:36.590Z,0.93
2018-01-30T03:52:04.364Z,0.70
2018-01-30T03:54:33.064Z,0.70
2018-01-30T03:57:00.770Z,0.57
2018-01-30T03:59:28.401Z,0.70
2018-01-30T04:01:56.026Z,0.68
2018-01-30T04:04:23.791Z,0.57
2018-01-30T04:06:51.363Z,0.65
2018-01-30T04:09:18.924Z,0.65
2018-01-30T04:11:46.511Z,0.60
2018-01-30T04:14:14.234Z,0.73
2018-01-30T04:16:41.578Z,0.70
2018-01-30T04:19:09.181Z,0.75
2018-01-30T04:21:36.743Z,0.80
2018-01-30T04:24:04.324Z,0.70
2018-01-30T04:26:31.906Z,0.90
2018-01-30T04:28:59.603Z,0.70
2018-01-30T04:31:27.357Z,0.73
2018-01-30T04:33:55.122Z,0.70
2018-01-30T04:36:22.782Z,0.80
2018-01-30T04:38:50.444Z,0.70
2018-01-30T04:41:18.208Z,0.60
2018-01-30T04:43:45.870Z,0.65
2018-01-30T04:46:13.635Z,0.65
2018-01-30T04:48:45.224Z,0.70
2018-01-30T04:51:13.156Z,0.70
2018-01-30T04:53:40.952Z,0.65
2018-01-30T04:56:09.253Z,0.50
2018-01-30T04:58:36.969Z,0.82
2018-01-30T05:01:06.701Z,0.85
2018-01-30T05:03:34.444Z,0.68
2018-01-30T05:06:02.618Z,0.70
2018-01-30T05:08:30.178Z,0.60
2018-01-30T05:10:57.959Z,0.70
2018-01-30T05:13:25.523Z,0.60
2018-01-30T05:15:53.079Z,0.70
2018-01-30T05:18:20.832Z,0.80
2018-01-30T05:20:48.518Z,0.80
2018-01-30T05:23:16.606Z,0.65
2018-01-30T05:25:45.262Z,0.60
2018-01-30T05:28:12.968Z,0.60
2018-01-30T05:30:40.672Z,0.60
2018-01-30T05:33:08.435Z,0.60
2018-01-30T05:35:36.199Z,0.70
2018-01-30T05:38:03.861Z,0.60
2018-01-30T05:40:31.451Z,0.60
2018-01-30T05:42:59.726Z,0.70
2018-01-30T05:45:27.413Z,0.80
2018-01-30T05:47:55.579Z,0.60
2018-01-30T05:50:23.299Z,0.70
2018-01-30T05:52:51.065Z,0.60
2018-01-30T05:55:18.726Z,0.60
2018-01-30T05:57:46.489Z,1.00
2018-01-30T06:00:14.058Z,0.73
2018-01-30T06:02:41.710Z,0.70
2018-01-30T06:05:09.475Z,0.70
2018-01-30T06:07:37.039Z,0.60
2018-01-30T06:10:04.749Z,0.70
2018-01-30T06:12:32.316Z,1.10
2018-01-30T06:14:59.968Z,0.60
2018-01-30T06:17:27.682Z,0.73
2018-01-30T06:19:55.243Z,0.77
2018-01-30T06:22:23.007Z,0.70
2018-01-30T06:24:50.770Z,0.85
2018-01-30T06:27:19.706Z,0.88
2018-01-30T06:29:47.354Z,0.70
2018-01-30T06:32:14.927Z,0.80
2018-01-30T06:34:42.749Z,1.10
2018-01-30T06:37:10.410Z,0.62
2018-01-30T06:39:38.176Z,0.90
2018-01-30T06:42:05.663Z,0.77
2018-01-30T06:44:36.171Z,0.90
2018-01-30T06:47:03.935Z,0.80
2018-01-30T06:49:31.506Z,0.90
2018-01-30T06:51:59.067Z,0.73
2018-01-30T06:54:27.024Z,0.85
2018-01-30T06:56:54.586Z,0.90
2018-01-30T06:59:22.347Z,1.10
2018-01-30T07:01:49.915Z,0.80
2018-01-30T07:04:17.569Z,1.02
2018-01-30T07:06:45.989Z,0.85
2018-01-30T07:09:13.712Z,0.70
2018-01-30T07:11:41.846Z,1.00
2018-01-30T07:14:09.408Z,0.80
2018-01-30T07:16:37.943Z,0.80
2018-01-30T07:19:05.691Z,1.00
2018-01-30T07:21:33.457Z,1.00
2018-01-30T07:24:01.222Z,1.85
2018-01-30T07:26:28.986Z,1.12
2018-01-30T07:28:56.646Z,1.00
2018-01-30T07:31:24.211Z,1.27
2018-01-30T07:33:51.791Z,1.27
2018-01-30T07:36:19.427Z,0.80
2018-01-30T07:38:47.091Z,1.95
2018-01-30T07:41:14.751Z,1.10
2018-01-30T07:43:42.515Z,2.65
2018-01-30T07:46:10.225Z,1.15
2018-01-30T07:48:37.942Z,1.20
2018-01-30T07:51:08.963Z,1.10
2018-01-30T07:53:36.748Z,0.90
2018-01-30T07:56:04.511Z,1.00
2018-01-30T07:58:32.082Z,1.08
2018-01-30T08:00:59.734Z,1.40
2018-01-30T08:03:27.497Z,1.02
2018-01-30T08:05:55.094Z,1.45
2018-01-30T08:08:22.653Z,0.90
2018-01-30T08:10:50.382Z,1.50
2018-01-30T08:13:17.940Z,0.95
2018-01-30T08:15:45.527Z,0.90
2018-01-30T08:18:13.272Z,1.55
2018-01-30T08:20:40.840Z,2.25
2018-01-30T08:23:08.596Z,1.08
2018-01-30T08:25:36.383Z,1.00
2018-01-30T08:28:04.123Z,0.80
2018-01-30T08:30:31.785Z,2.12
2018-01-30T08:32:59.446Z,2.35
2018-01-30T08:35:27.006Z,2.53
2018-01-30T08:37:55.794Z,1.10
2018-01-30T08:40:23.366Z,1.10
2018-01-30T08:42:50.962Z,1.12
2018-01-30T08:45:18.370Z,0.90
2018-01-30T08:47:46.134Z,1.15
2018-01-30T08:50:13.799Z,1.60
2018-01-30T08:52:41.562Z,0.77
2018-01-30T08:55:10.290Z,0.70
2018-01-30T08:57:38.216Z,0.77
2018-01-30T09:00:05.980Z,0.60
2018-01-30T09:02:33.571Z,0.70
2018-01-30T09:05:01.406Z,0.80
2018-01-30T09:07:29.172Z,0.57
2018-01-30T09:09:56.746Z,0.60
2018-01-30T09:12:24.496Z,0.80
2018-01-30T09:14:53.081Z,0.60
2018-01-30T09:17:20.741Z,0.60
2018-01-30T09:19:48.301Z,0.70
2018-01-30T09:22:15.882Z,0.50
2018-01-30T09:24:43.624Z,0.62
2018-01-30T09:27:11.390Z,0.50
2018-01-30T09:29:38.954Z,0.68
2018-01-30T09:32:06.711Z,0.60
2018-01-30T09:34:34.374Z,0.60
2018-01-30T09:37:02.036Z,0.65
2018-01-30T09:39:29.704Z,0.60
2018-01-30T09:41:57.283Z,0.68
2018-01-30T09:44:24.835Z,0.80
2018-01-30T09:46:52.583Z,0.70
2018-01-30T09:49:19.935Z,0.60
2018-01-30T09:51:47.700Z,0.80
2018-01-30T09:54:15.465Z,0.62
2018-01-30T09:56:43.045Z,0.50
2018-01-30T09:59:10.788Z,0.50
2018-01-30T10:01:38.454Z,0.70
2018-01-30T10:04:06.730Z,0.90
2018-01-30T10:06:34.493Z,0.50
2018-01-30T10:09:02.259Z,0.70
2018-01-30T10:11:30.024Z,0.65
2018-01-30T10:13:57.607Z,0.60
2018-01-30T10:16:25.345Z,0.50
2018-01-30T10:18:52.910Z,0.60
2018-01-30T10:21:20.668Z,0.50
2018-01-30T10:23:48.436Z,0.60
2018-01-30T10:26:16.198Z,0.77
2018-01-30T10:28:43.861Z,0.65
2018-01-30T10:31:11.623Z,0.73
2018-01-30T10:33:39.193Z,0.75
2018-01-30T10:36:06.851Z,0.93
2018-01-30T10:38:35.535Z,0.80
2018-01-30T10:41:04.040Z,0.60
2018-01-30T10:43:32.306Z,0.65
2018-01-30T10:46:00.072Z,0.80
2018-01-30T10:48:27.827Z,0.60
2018-01-30T10:50:55.414Z,0.52
2018-01-30T10:53:22.995Z,0.70
2018-01-30T10:55:50.717Z,0.73
2018-01-30T10:58:18.378Z,0.70
2018-01-30T11:00:45.954Z,0.98
2018-01-30T11:03:13.527Z,0.80
2018-01-30T11:05:41.131Z,0.80
2018-01-30T11:08:09.949Z,0.65
2018-01-30T11:10:38.683Z,0.80
2018-01-30T11:13:06.418Z,0.80
2018-01-30T11:15:34.162Z,0.90
2018-01-30T11:18:01.742Z,0.60
2018-01-30T11:20:29.320Z,0.70
2018-01-30T11:22:56.695Z,0.60
2018-01-30T11:25:24.357Z,0.60
2018-01-30T11:27:52.647Z,0.60
2018-01-30T11:30:21.368Z,0.65
2018-01-30T11:32:49.132Z,0.73
2018-01-30T11:35:16.897Z,0.57
2018-01-30T11:37:44.486Z,0.65
2018-01-30T11:40:12.151Z,1.00
2018-01-30T11:42:39.882Z,0.60
2018-01-30T11:45:07.340Z,0.60
2018-01-30T11:47:35.001Z,0.70
2018-01-30T11:50:02.813Z,0.60
2018-01-30T11:52:30.536Z,0.90
2018-01-30T11:54:58.301Z,0.60
2018-01-30T11:57:25.962Z,0.80
2018-01-30T11:59:53.521Z,0.70
2018-01-30T12:02:21.184Z,0.70
2018-01-30T12:04:48.947Z,0.68
2018-01-30T12:07:16.609Z,0.82
2018-01-30T12:09:44.374Z,0.80
2018-01-30T12:12:12.139Z,0.70
2018-01-30T12:14:39.906Z,0.90
2018-01-30T12:17:07.667Z,0.80
2018-01-30T12:19:35.331Z,0.80
2018-01-30T12:22:02.914Z,0.60
2018-01-30T12:24:30.581Z,0.80
2018-01-30T12:26:58.143Z,0.80
2018-01-30T12:29:26.670Z,0.80
2018-01-30T12:31:54.231Z,0.77
2018-01-30T12:34:21.954Z,0.55
2018-01-30T12:36:49.645Z,1.55
2018-01-30T12:39:17.411Z,0.73
2018-01-30T12:41:44.976Z,0.80
2018-01-30T12:44:12.836Z,1.23
2018-01-30T12:46:40.497Z,1.37
2018-01-30T12:49:10.215Z,1.30
2018-01-30T12:51:37.785Z,1.45
2018-01-30T12:54:07.897Z,1.75
2018-01-30T12:56:36.477Z,1.65
2018-01-30T12:59:04.263Z,2.10
2018-01-30T13:01:32.006Z,2.45
2018-01-30T13:03:59.686Z,1.52
2018-01-30T13:06:27.329Z,2.10
2018-01-30T13:08:55.093Z,2.20
2018-01-30T13:11:22.857Z,2.47
2018-01-30T13:13:50.439Z,2.85
2018-01-30T13:16:18.128Z,1.95
2018-01-30T13:18:45.706Z,2.00
2018-01-30T13:21:13.506Z,2.40
2018-01-30T13:23:41.271Z,2.53
2018-01-30T13:26:09.035Z,2.33
2018-01-30T13:28:36.800Z,2.28
2018-01-30T13:31:04.563Z,2.33
2018-01-30T13:33:32.224Z,2.20
2018-01-30T13:35:59.887Z,2.22
2018-01-30T13:38:27.455Z,1.98
2018-01-30T13:40:55.254Z,2.15
2018-01-30T13:43:23.879Z,1.95
2018-01-30T13:45:51.662Z,2.00
2018-01-30T13:48:20.347Z,1.80
2018-01-30T13:50:48.112Z,1.77
2018-01-30T13:53:15.773Z,1.75
2018-01-30T13:55:43.538Z,1.40
2018-01-30T13:58:11.301Z,2.12
2018-01-30T14:00:39.066Z,1.67
2018-01-30T14:03:06.830Z,1.67
2018-01-30T14:05:34.428Z,1.80
2018-01-30T14:08:02.154Z,1.33
2018-01-30T14:10:29.918Z,1.70
2018-01-30T14:12:57.586Z,2.25
2018-01-30T14:15:27.078Z,2.45
2018-01-30T14:17:57.325Z,1.95
2018-01-30T14:20:25.192Z,3.10
2018-01-30T14:22:52.968Z,2.03
2018-01-30T14:25:20.769Z,2.95
2018-01-30T14:27:48.533Z,2.10
2018-01-30T14:30:16.139Z,2.22
2018-01-30T14:32:43.857Z,1.80
2018-01-30T14:35:12.177Z,1.98
2018-01-30T14:37:40.103Z,1.70
2018-01-30T14:40:07.561Z,1.12
2018-01-30T14:42:35.259Z,1.62
2018-01-30T14:45:03.095Z,1.58
2018-01-30T14:47:30.669Z,1.85
2018-01-30T14:49:58.362Z,1.70
2018-01-30T14:52:26.074Z,1.58
2018-01-30T14:54:53.838Z,2.20
2018-01-30T14:57:21.603Z,2.35
2018-01-30T14:59:49.265Z,1.98
2018-01-30T15:02:17.029Z,2.05
2018-01-30T15:04:44.793Z,1.85
2018-01-30T15:07:12.557Z,1.60
2018-01-30T15:09:40.531Z,2.22
2018-01-30T15:12:08.105Z,1.92
2018-01-30T15:14:36.690Z,1.95
2018-01-30T15:17:04.393Z,1.65
2018-01-30T15:19:34.149Z,2.10
2018-01-30T15:22:05.144Z,2.10
2018-01-30T15:24:37.329Z,2.30
2018-01-30T15:27:07.625Z,2.30
2018-01-30T15:29:35.313Z,2.40
2018-01-30T15:32:03.081Z,1.95
2018-01-30T15:34:30.842Z,2.25
2018-01-30T15:36:58.838Z,2.15
2018-01-30T15:39:27.015Z,2.00
2018-01-30T15:41:54.749Z,2.42
2018-01-30T15:44:22.325Z,1.85
2018-01-30T15:46:50.024Z,2.37
2018-01-30T15:49:17.630Z,2.47
2018-01-30T15:51:45.202Z,2.50
2018-01-30T15:54:12.772Z,2.50
2018-01-30T15:56:40.375Z,2.37
2018-01-30T15:59:08.076Z,2.05
2018-01-30T16:01:35.674Z,2.03
2018-01-30T16:04:03.399Z,2.30
2018-01-30T16:06:31.073Z,2.20
2018-01-30T16:08:58.653Z,2.10
2018-01-30T16:11:26.315Z,1.95
2018-01-30T16:13:54.048Z,2.10
2018-01-30T16:16:21.711Z,1.80
2018-01-30T16:18:49.478Z,2.20
2018-01-30T16:21:17.241Z,2.42
2018-01-30T16:23:44.830Z,2.58
2018-01-30T16:26:12.413Z,3.00
2018-01-30T16:28:40.004Z,2.25
2018-01-30T16:31:07.579Z,2.65
2018-01-30T16:33:35.342Z,2.47
2018-01-30T16:36:02.926Z,2.45
2018-01-30T16:38:30.498Z,3.28
2018-01-30T16:40:58.249Z,2.90
2018-01-30T16:43:25.822Z,3.00
2018-01-30T16:45:53.553Z,2.40
2018-01-30T16:48:21.212Z,2.15
2018-01-30T16:50:48.977Z,3.37
2018-01-30T16:53:16.746Z,2.50
2018-01-30T16:55:44.504Z,2.50
2018-01-30T16:58:11.839Z,2.60
2018-01-30T17:00:39.439Z,3.05
2018-01-30T17:03:07.183Z,3.10
2018-01-30T17:05:34.948Z,2.75
2018-01-30T17:08:02.508Z,2.55
2018-01-30T17:10:30.682Z,2.33
2018-01-30T17:12:58.855Z,2.95
2018-01-30T17:15:26.618Z,2.70
2018-01-30T17:17:54.474Z,2.40
2018-01-30T17:20:23.412Z,3.75
2018-01-30T17:22:51.141Z,2.90
2018-01-30T17:25:18.904Z,3.08
2018-01-30T17:27:46.670Z,3.42
2018-01-30T17:30:14.828Z,3.80
2018-01-30T17:32:43.313Z,5.45
2018-01-30T17:35:11.092Z,5.00
2018-01-30T17:37:38.853Z,9.60
2018-01-30T17:40:06.547Z,17.40
2018-01-30T17:42:34.176Z,23.40
2018-01-30T17:45:01.839Z,23.52
2018-01-30T17:47:29.603Z,9.52
2018-01-30T17:49:57.247Z,6.22
2018-01-30T17:52:24.850Z,5.57
2018-01-30T17:54:52.590Z,5.60
2018-01-30T17:57:20.149Z,4.60
2018-01-30T17:59:48.680Z,5.50
2018-01-30T18:02:16.282Z,4.70
2018-01-30T18:04:44.056Z,5.62
2018-01-30T18:07:11.820Z,5.07
2018-01-30T18:09:39.584Z,5.70
2018-01-30T18:12:07.349Z,4.53
2018-01-30T18:14:34.966Z,5.35
2018-01-30T18:17:02.680Z,6.50
2018-01-30T18:19:30.439Z,6.32
2018-01-30T18:21:58.020Z,5.62
2018-01-30T18:24:25.608Z,6.50
2018-01-30T18:26:53.331Z,5.55
2018-01-30T18:29:21.094Z,4.80
2018-01-30T18:31:48.859Z,5.80
2018-01-30T18:34:17.547Z,4.68
2018-01-30T18:36:45.172Z,5.78
2018-01-30T18:39:13.155Z,6.07
2018-01-30T18:41:40.816Z,5.30
2018-01-30T18:44:08.991Z,5.55
2018-01-30T18:46:36.756Z,6.50
2018-01-30T18:49:04.520Z,6.07
2018-01-30T18:51:32.285Z,7.07
2018-01-30T18:53:59.993Z,9.40
2018-01-30T18:56:28.548Z,9.15
2018-01-30T18:58:56.498Z,10.40
2018-01-30T19:01:24.425Z,6.72
2018-01-30T19:03:52.285Z,6.57
2018-01-30T19:06:20.556Z,6.15
2018-01-30T19:08:48.273Z,6.45
2018-01-30T19:11:16.038Z,5.15
2018-01-30T19:13:43.731Z,5.72
2018-01-30T19:16:13.294Z,5.80
2018-01-30T19:18:40.974Z,6.40
2018-01-30T19:21:08.948Z,8.25
2018-01-30T19:23:37.366Z,6.87
2018-01-30T19:26:05.090Z,7.72
2018-01-30T19:28:32.702Z,6.30
2018-01-30T19:31:00.414Z,6.15
2018-01-30T19:33:28.177Z,7.07
2018-01-30T19:35:55.879Z,6.90
2018-01-30T19:38:23.603Z,7.12
2018-01-30T19:40:52.867Z,7.22
2018-01-30T19:43:20.491Z,6.93
2018-01-30T19:45:48.063Z,6.35
2018-01-30T19:48:15.991Z,7.68
2018-01-30T19:50:43.758Z,7.22
2018-01-30T19:53:11.520Z,7.45
2018-01-30T19:55:40.252Z,8.65
2018-01-30T19:58:07.830Z,9.68
2018-01-30T20:00:35.532Z,8.60
2018-01-30T20:03:02.871Z,9.18
2018-01-30T20:05:30.650Z,11.15
2018-01-30T20:07:58.416Z,39.42
2018-01-30T20:10:26.137Z,12.75
2018-01-30T20:12:53.726Z,12.02
2018-01-30T20:15:21.491Z,33.13
2018-01-30T20:17:49.367Z,43.10
2018-01-30T20:20:17.634Z,11.80
2018-01-30T20:22:46.372Z,10.20
2018-01-30T20:25:13.966Z,9.55
2018-01-30T20:27:41.570Z,8.88
2018-01-30T20:30:09.235Z,7.57
2018-01-30T20:32:36.865Z,7.70
2018-01-30T20:35:04.443Z,7.80
2018-01-30T20:37:31.910Z,7.35
2018-01-30T20:39:59.486Z,7.87
2018-01-30T20:42:27.922Z,7.72
2018-01-30T20:44:56.280Z,7.72
2018-01-30T20:47:23.973Z,7.30
2018-01-30T20:49:51.627Z,6.43
2018-01-30T20:52:19.324Z,7.32
2018-01-30T20:54:47.053Z,6.72
2018-01-30T20:57:14.715Z,6.93
2018-01-30T20:59:42.376Z,7.80
2018-01-30T21:02:10.143Z,7.05
2018-01-30T21:04:38.420Z,6.62
2018-01-30T21:07:06.210Z,7.10
2018-01-30T21:09:34.972Z,7.60
2018-01-30T21:12:03.217Z,8.10
2018-01-30T21:14:31.012Z,7.93
2018-01-30T21:16:58.706Z,7.37
2018-01-30T21:19:27.515Z,7.22
2018-01-30T21:21:55.240Z,7.35
2018-01-30T21:24:23.004Z,6.78
2018-01-30T21:26:51.076Z,8.00
2018-01-30T21:29:21.100Z,6.87
2018-01-30T21:31:48.702Z,6.80
2018-01-30T21:34:17.035Z,7.30
2018-01-30T21:36:44.804Z,7.70
2018-01-30T21:39:12.568Z,8.23
2018-01-30T21:41:41.171Z,9.05
2018-01-30T21:44:09.795Z,7.40
2018-01-30T21:46:37.601Z,6.75
2018-01-30T21:49:05.262Z,7.75
2018-01-30T21:51:33.035Z,8.10
2018-01-30T21:54:00.735Z,7.45
2018-01-30T21:56:29.498Z,6.90
2018-01-30T21:58:57.252Z,7.75
2018-01-30T22:01:25.014Z,6.75
2018-01-30T22:03:52.605Z,6.62
2018-01-30T22:06:22.163Z,8.25
2018-01-30T22:08:49.850Z,7.45
2018-01-30T22:11:17.614Z,8.15
2018-01-30T22:13:45.513Z,9.05
2018-01-30T22:16:13.362Z,7.80
2018-01-30T22:18:41.065Z,8.48
2018-01-30T22:21:09.146Z,8.85
2018-01-30T22:23:36.782Z,9.40
2018-01-30T22:26:04.979Z,10.35
2018-01-30T22:28:32.932Z,9.88
2018-01-30T22:31:00.557Z,9.55
2018-01-30T22:33:28.145Z,9.82
2018-01-30T22:35:55.884Z,8.30
2018-01-30T22:38:24.572Z,9.25
2018-01-30T22:40:52.340Z,10.57
2018-01-30T22:43:19.922Z,9.70
2018-01-30T22:45:47.561Z,9.20
